首页
METAR-TAF:

METAR-TAF

机场 :

Jackson County Airport (Reynolds Field)

杰克逊, 密歇根州, 美国

纬度: 42-15-35N, 经度: 084-27-34W, 海拔: 305米

当前天气观测

该预报发布于31分钟前的08:26 UTC
风速11节,风向西,有时为27节阵风
温度 0°C
湿度 74%
气压 1006 hPa
能見度: 16.1公里
阴天层高于1500英尺

METAR: KJXN 100826Z AUTO 26011G27KT 10SM OVC015 00/M04 A2972 RMK AO2 PK WND 25027/0819 T00001039

时间: 03:57 (08:57 UTC)

预报

该预报发布于1小时和16分钟前的07:41 UTC
预报有效从10日的 08点(UTC)到 11日的 06点(UTC)
风速15节,风向西,有时为25节阵风
能見度: 10公里
阴天层高于1500英尺
附近有阵雨
从 10日的 0900点(UTC)
风速14节,风向西,有时为24节阵风
能見度: 6.4公里
阴天层高于1500英尺
小阵雪
短暂存在
从 10日的 09点(UTC)到 10日的 11点(UTC)
能見度: 1.6公里
阴天层高于900英尺
小阵雪, 轻雾
从 10日的 1100点(UTC)
风速12节,风向西,有时为22节阵风
能見度: 10公里
阴天层高于2500英尺
小阵雪
从 10日的 1800点(UTC)
风速12节,风向西,有时为20节阵风
能見度: 10公里
多云层高于3000英尺
附近有阵雨

TAF: KJXN 100741Z 1008/1106 26015G25KT P6SM VCSH OVC015 FM100900 28014G24KT 4SM -SHSN OVC015 TEMPO 1009/1011 1SM -SHSN BR OVC009 FM101100 28012G22KT P6SM -SHSN OVC025 FM101800 28012G20KT P6SM VCSH BKN030

超过4000个机场的气象观测和天气预报(METAR&TAF报告)。

可查询的气象台以黄色和红色小点在地图上表示。

将鼠标移到小点上方,可查看气象台名称。

然后点击查看天气观测和预报。

如需切换地图:点击带黑十字的绿色按钮放大地图;点击带横线的绿色按钮缩小地图;或者点击绿色箭头查看邻近地区的地图。


METAR-TAF: